Boston, MA (02114)

2:17 PM EDT on April 01, 2015 (GMT -0400)
MIT (Green Bld Roof) | | Change Station
CLOSE
Current Station
Personal Weather Station
Location: Cambridge, MA
Elevation: 59 ft
Nearby Weather Stations

Elev 59 ft 42.36 °N, 71.09 °W | Updated 19 seconds ago

Scattered Clouds
Scattered Clouds
44.3 °F
Feels Like 40 °F
N
7.0
Wind Variable Wind from West
Gusts 7.0 mph

Today
High -- | Low -- °F
--% Chance of Precip.
Yesterday
High -- | Low -- °F
Precip. -- in
6:27 AM 7:09 PM
Waxing Gibbous, 93% visible
Pressure 29.99 in
Visibility 10.0 miles
Clouds Few 20000 ft
Scattered Clouds 25000 ft
Windchill 40 °F
Dew Point 9 °F
Humidity 23%
Rainfall 0.00 in
Snow Depth Not available.
UV 6 out of 12
Pollen 6.90 out of 12
Air Quality Not available.
Flu Activity Not available.
METAR KBOS 011754Z 31015G23KT 10SM FEW200 SCT250 07/M14 A2999 RMK AO2 SLP156 T00671139 10067 20000 53001

More Conditions Fewer Conditions

Pressure 29.99 in
Visibility 10.0 miles
Clouds Few 20000 ft
Scattered Clouds 25000 ft
Windchill 40 °F
Dew Point 9 °F
Humidity 23%
Rainfall 0.00 in
Snow Depth Not available.
UV 6 out of 12
Pollen 6.90 out of 12
Air Quality Not available.
Flu Activity Not available.
METAR KBOS 011754Z 31015G23KT 10SM FEW200 SCT250 07/M14 A2999 RMK AO2 SLP156 T00671139 10067 20000 53001

More Conditions Fewer Conditions

10-Day Weather Forecast

Almanac

Astronomy

Apr. 01, 2015 Rise Set
Actual Time
Civil Twilight
Nautical Twilight
Astronomical Twilight
Moon
Length of Visible Light
Length of Day
Tomorrow will be .
, % of the Moon is Illuminated

Today's Extremes

State Highs State Lows

Community

WunderPhotos

Upload Photos

1,810,030 photos uploaded!

WunderBlogs® & News

Nearby

Air Quality

  Air Quality AQ Index Pollutant
Not available.

Snow Depth

Station Depth Elevation

Earthquake Activity

City Distance Mag. Time & Date
Minimum magnitude displayed is 2.5.

Coastal Water Temperatures

Place Temperature

Stations

Nearby Weather Stations

Station Location Temp. Windchill Dew Point Humidity Wind Precip. Elev Updated Type